sensor_id;sensor_type;location;lat;lon;timestamp;temperature;humidity
13673;DHT22;6909;52.202;9.876;2023-04-06T00:02:26;-0.80;99.90
13673;DHT22;6909;52.202;9.876;2023-04-06T00:04:53;-0.80;99.90
13673;DHT22;6909;52.202;9.876;2023-04-06T00:07:20;-0.90;99.90
13673;DHT22;6909;52.202;9.876;2023-04-06T00:09:46;-0.80;99.90
13673;DHT22;6909;52.202;9.876;2023-04-06T00:12:13;-0.80;99.90
13673;DHT22;6909;52.202;9.876;2023-04-06T00:14:40;-0.80;99.90
13673;DHT22;6909;52.202;9.876;2023-04-06T00:17:06;-1.00;99.90
13673;DHT22;6909;52.202;9.876;2023-04-06T00:19:34;-1.10;99.90
13673;DHT22;6909;52.202;9.876;2023-04-06T00:22:01;-1.10;99.90
13673;DHT22;6909;52.202;9.876;2023-04-06T00:24:28;-1.10;99.90
13673;DHT22;6909;52.202;9.876;2023-04-06T00:26:55;-1.10;99.90
13673;DHT22;6909;52.202;9.876;2023-04-06T00:29:21;-1.00;99.90
13673;DHT22;6909;52.202;9.876;2023-04-06T00:31:48;-1.00;99.90
13673;DHT22;6909;52.202;9.876;2023-04-06T00:34:15;-0.90;99.90
13673;DHT22;6909;52.202;9.876;2023-04-06T00:36:43;-0.90;99.90
13673;DHT22;6909;52.202;9.876;2023-04-06T00:39:10;-0.90;99.90
13673;DHT22;6909;52.202;9.876;2023-04-06T00:41:36;-0.90;99.90
13673;DHT22;6909;52.202;9.876;2023-04-06T00:44:03;-1.00;99.90
13673;DHT22;6909;52.202;9.876;2023-04-06T00:46:30;-1.00;99.90
13673;DHT22;6909;52.202;9.876;2023-04-06T00:48:56;-1.00;99.90
13673;DHT22;6909;52.202;9.876;2023-04-06T00:51:23;-1.10;99.90
13673;DHT22;6909;52.202;9.876;2023-04-06T00:53:52;-1.10;99.90
13673;DHT22;6909;52.202;9.876;2023-04-06T00:56:18;-1.10;1.00
13673;DHT22;6909;52.202;9.876;2023-04-06T00:58:45;-0.90;1.00
13673;DHT22;6909;52.202;9.876;2023-04-06T01:01:12;-1.00;1.00
13673;DHT22;6909;52.202;9.876;2023-04-06T01:03:38;-1.00;1.00
13673;DHT22;6909;52.202;9.876;2023-04-06T01:06:07;-1.00;1.00
13673;DHT22;6909;52.202;9.876;2023-04-06T01:08:34;-0.80;1.00
13673;DHT22;6909;52.202;9.876;2023-04-06T01:11:02;-0.80;1.00
13673;DHT22;6909;52.202;9.876;2023-04-06T01:13:28;-0.90;1.00
13673;DHT22;6909;52.202;9.876;2023-04-06T01:15:55;-0.90;99.90
13673;DHT22;6909;52.202;9.876;2023-04-06T01:18:25;-0.80;99.90
13673;DHT22;6909;52.202;9.876;2023-04-06T01:20:52;-0.80;99.90
13673;DHT22;6909;52.202;9.876;2023-04-06T01:23:23;-0.80;99.90
13673;DHT22;6909;52.202;9.876;2023-04-06T01:25:49;-0.90;99.90
13673;DHT22;6909;52.202;9.876;2023-04-06T01:28:16;-1.00;99.90
13673;DHT22;6909;52.202;9.876;2023-04-06T01:30:42;-1.10;99.90
13673;DHT22;6909;52.202;9.876;2023-04-06T01:33:10;-1.30;99.90
13673;DHT22;6909;52.202;9.876;2023-04-06T01:35:36;-1.40;1.00
13673;DHT22;6909;52.202;9.876;2023-04-06T01:38:03;-1.40;1.00
13673;DHT22;6909;52.202;9.876;2023-04-06T01:40:31;-1.50;1.00
13673;DHT22;6909;52.202;9.876;2023-04-06T01:42:58;-1.50;1.00
13673;DHT22;6909;52.202;9.876;2023-04-06T01:45:24;-1.60;1.00
13673;DHT22;6909;52.202;9.876;2023-04-06T01:47:51;-1.60;1.00
13673;DHT22;6909;52.202;9.876;2023-04-06T01:50:18;-1.60;1.00
13673;DHT22;6909;52.202;9.876;2023-04-06T01:52:45;-1.60;1.00
13673;DHT22;6909;52.202;9.876;2023-04-06T01:55:11;-1.70;1.00
13673;DHT22;6909;52.202;9.876;2023-04-06T01:57:39;-1.70;1.00
13673;DHT22;6909;52.202;9.876;2023-04-06T02:00:07;-1.80;1.00
13673;DHT22;6909;52.202;9.876;2023-04-06T02:02:34;-1.80;1.00
13673;DHT22;6909;52.202;9.876;2023-04-06T02:05:00;-1.80;1.00
13673;DHT22;6909;52.202;9.876;2023-04-06T02:07:27;-1.80;1.00
13673;DHT22;6909;52.202;9.876;2023-04-06T02:09:54;-1.90;1.00
13673;DHT22;6909;52.202;9.876;2023-04-06T02:12:21;-1.80;1.00
13673;DHT22;6909;52.202;9.876;2023-04-06T02:14:50;-1.80;1.00
13673;DHT22;6909;52.202;9.876;2023-04-06T02:17:17;-1.70;1.00
13673;DHT22;6909;52.202;9.876;2023-04-06T02:19:44;-1.70;1.00
13673;DHT22;6909;52.202;9.876;2023-04-06T02:22:10;-1.70;1.00
13673;DHT22;6909;52.202;9.876;2023-04-06T02:24:37;-1.70;1.00
13673;DHT22;6909;52.202;9.876;2023-04-06T02:27:04;-1.70;1.00
13673;DHT22;6909;52.202;9.876;2023-04-06T02:29:31;-1.80;1.00
13673;DHT22;6909;52.202;9.876;2023-04-06T02:31:59;-1.80;1.00
13673;DHT22;6909;52.202;9.876;2023-04-06T02:34:25;-1.90;1.00
13673;DHT22;6909;52.202;9.876;2023-04-06T02:36:52;-1.80;1.00
13673;DHT22;6909;52.202;9.876;2023-04-06T02:39:19;-1.80;1.00
13673;DHT22;6909;52.202;9.876;2023-04-06T02:41:45;-1.90;1.00
13673;DHT22;6909;52.202;9.876;2023-04-06T02:44:12;-2.00;1.00
13673;DHT22;6909;52.202;9.876;2023-04-06T02:46:39;-2.10;1.00
13673;DHT22;6909;52.202;9.876;2023-04-06T02:49:07;-2.20;1.00
13673;DHT22;6909;52.202;9.876;2023-04-06T02:51:33;-2.20;1.00
13673;DHT22;6909;52.202;9.876;2023-04-06T02:54:00;-2.20;1.00
13673;DHT22;6909;52.202;9.876;2023-04-06T02:56:26;-2.10;1.00
13673;DHT22;6909;52.202;9.876;2023-04-06T02:58:53;-2.10;1.00
13673;DHT22;6909;52.202;9.876;2023-04-06T03:01:20;-2.00;1.00
13673;DHT22;6909;52.202;9.876;2023-04-06T03:03:47;-2.00;1.00
13673;DHT22;6909;52.202;9.876;2023-04-06T03:06:15;-1.90;1.00
13673;DHT22;6909;52.202;9.876;2023-04-06T03:08:41;-1.90;1.00
13673;DHT22;6909;52.202;9.876;2023-04-06T03:11:08;-2.00;1.00
13673;DHT22;6909;52.202;9.876;2023-04-06T03:13:36;-2.10;1.00
13673;DHT22;6909;52.202;9.876;2023-04-06T03:16:04;-2.10;1.00
13673;DHT22;6909;52.202;9.876;2023-04-06T03:18:31;-2.00;1.00
13673;DHT22;6909;52.202;9.876;2023-04-06T03:20:58;-1.90;1.00
13673;DHT22;6909;52.202;9.876;2023-04-06T03:23:26;-1.80;1.00
13673;DHT22;6909;52.202;9.876;2023-04-06T03:25:53;-1.90;28.00
13673;DHT22;6909;52.202;9.876;2023-04-06T03:28:20;-1.90;77.50
13673;DHT22;6909;52.202;9.876;2023-04-06T03:30:46;-1.90;99.90
13673;DHT22;6909;52.202;9.876;2023-04-06T03:33:13;-1.90;99.90
13673;DHT22;6909;52.202;9.876;2023-04-06T03:35:40;-1.90;87.90
13673;DHT22;6909;52.202;9.876;2023-04-06T03:38:06;-1.90;47.40
13673;DHT22;6909;52.202;9.876;2023-04-06T03:40:34;-1.90;28.50
13673;DHT22;6909;52.202;9.876;2023-04-06T03:43:01;-2.00;1.00
13673;DHT22;6909;52.202;9.876;2023-04-06T03:45:27;-1.90;1.00
13673;DHT22;6909;52.202;9.876;2023-04-06T03:47:54;-2.00;1.00
13673;DHT22;6909;52.202;9.876;2023-04-06T03:50:21;-1.90;1.00
13673;DHT22;6909;52.202;9.876;2023-04-06T03:52:47;-1.80;1.00
13673;DHT22;6909;52.202;9.876;2023-04-06T03:55:14;-1.70;1.00
13673;DHT22;6909;52.202;9.876;2023-04-06T03:57:42;-1.60;1.00
13673;DHT22;6909;52.202;9.876;2023-04-06T04:00:10;-1.60;1.00
13673;DHT22;6909;52.202;9.876;2023-04-06T04:02:37;-1.50;1.00
13673;DHT22;6909;52.202;9.876;2023-04-06T04:05:04;-1.40;1.00
13673;DHT22;6909;52.202;9.876;2023-04-06T04:07:30;-1.30;1.00
13673;DHT22;6909;52.202;9.876;2023-04-06T04:09:57;-1.30;1.00
13673;DHT22;6909;52.202;9.876;2023-04-06T04:12:24;-1.30;1.00
13673;DHT22;6909;52.202;9.876;2023-04-06T04:14:52;-1.30;1.00
13673;DHT22;6909;52.202;9.876;2023-04-06T04:17:18;-1.20;1.00
13673;DHT22;6909;52.202;9.876;2023-04-06T04:19:45;-1.20;1.00
13673;DHT22;6909;52.202;9.876;2023-04-06T04:22:12;-1.10;1.00
13673;DHT22;6909;52.202;9.876;2023-04-06T04:24:38;-1.00;1.00
13673;DHT22;6909;52.202;9.876;2023-04-06T04:27:05;-0.80;1.00
13673;DHT22;6909;52.202;9.876;2023-04-06T04:29:31;-0.80;1.00
13673;DHT22;6909;52.202;9.876;2023-04-06T04:32:02;-0.60;1.00
13673;DHT22;6909;52.202;9.876;2023-04-06T04:34:29;-0.60;1.00
13673;DHT22;6909;52.202;9.876;2023-04-06T04:36:56;-0.60;1.00
13673;DHT22;6909;52.202;9.876;2023-04-06T04:39:23;-0.60;1.00
13673;DHT22;6909;52.202;9.876;2023-04-06T04:41:49;-0.80;1.00
13673;DHT22;6909;52.202;9.876;2023-04-06T04:44:16;-0.90;1.00
13673;DHT22;6909;52.202;9.876;2023-04-06T04:46:43;-1.00;1.00
13673;DHT22;6909;52.202;9.876;2023-04-06T04:49:11;-1.20;1.00
13673;DHT22;6909;52.202;9.876;2023-04-06T04:51:37;-1.30;1.00
13673;DHT22;6909;52.202;9.876;2023-04-06T04:54:04;-1.50;1.00
13673;DHT22;6909;52.202;9.876;2023-04-06T04:56:31;-1.60;1.00
13673;DHT22;6909;52.202;9.876;2023-04-06T04:58:57;-1.60;1.00
13673;DHT22;6909;52.202;9.876;2023-04-06T05:01:24;-1.70;1.00
13673;DHT22;6909;52.202;9.876;2023-04-06T05:03:51;-1.70;1.00
13673;DHT22;6909;52.202;9.876;2023-04-06T05:06:19;-1.60;1.00
13673;DHT22;6909;52.202;9.876;2023-04-06T05:08:45;-1.50;1.00
13673;DHT22;6909;52.202;9.876;2023-04-06T05:11:12;-1.50;1.00
13673;DHT22;6909;52.202;9.876;2023-04-06T05:13:39;-1.30;1.00
13673;DHT22;6909;52.202;9.876;2023-04-06T05:16:06;-1.30;1.00
13673;DHT22;6909;52.202;9.876;2023-04-06T05:18:32;-1.20;1.00
13673;DHT22;6909;52.202;9.876;2023-04-06T05:20:59;-1.00;1.00
13673;DHT22;6909;52.202;9.876;2023-04-06T05:23:27;-0.70;1.00
13673;DHT22;6909;52.202;9.876;2023-04-06T05:25:54;-0.50;1.00
13673;DHT22;6909;52.202;9.876;2023-04-06T05:28:20;-0.30;1.00
13673;DHT22;6909;52.202;9.876;2023-04-06T05:30:47;0.60;1.00
13673;DHT22;6909;52.202;9.876;2023-04-06T05:33:14;1.90;1.00
13673;DHT22;6909;52.202;9.876;2023-04-06T05:35:41;3.30;1.00
13673;DHT22;6909;52.202;9.876;2023-04-06T05:38:08;4.70;1.00
13673;DHT22;6909;52.202;9.876;2023-04-06T05:40:36;6.00;1.00
13673;DHT22;6909;52.202;9.876;2023-04-06T05:43:06;7.30;1.00
13673;DHT22;6909;52.202;9.876;2023-04-06T05:45:32;8.50;1.00
13673;DHT22;6909;52.202;9.876;2023-04-06T05:48:00;9.20;1.00
13673;DHT22;6909;52.202;9.876;2023-04-06T05:50:27;10.40;1.00
13673;DHT22;6909;52.202;9.876;2023-04-06T05:52:53;11.20;1.00
13673;DHT22;6909;52.202;9.876;2023-04-06T05:55:20;11.50;1.00
13673;DHT22;6909;52.202;9.876;2023-04-06T05:57:48;12.00;1.00
13673;DHT22;6909;52.202;9.876;2023-04-06T06:00:15;12.10;99.90
13673;DHT22;6909;52.202;9.876;2023-04-06T06:02:42;13.10;99.90
13673;DHT22;6909;52.202;9.876;2023-04-06T06:05:08;13.20;99.90
13673;DHT22;6909;52.202;9.876;2023-04-06T06:07:38;13.60;99.90
13673;DHT22;6909;52.202;9.876;2023-04-06T06:10:05;13.80;99.90
13673;DHT22;6909;52.202;9.876;2023-04-06T06:12:32;13.60;99.90
13673;DHT22;6909;52.202;9.876;2023-04-06T06:15:00;14.10;99.90
13673;DHT22;6909;52.202;9.876;2023-04-06T06:17:26;14.30;99.90
13673;DHT22;6909;52.202;9.876;2023-04-06T06:19:53;13.80;47.50
13673;DHT22;6909;52.202;9.876;2023-04-06T06:22:20;12.90;1.00
13673;DHT22;6909;52.202;9.876;2023-04-06T06:24:47;13.00;1.00
13673;DHT22;6909;52.202;9.876;2023-04-06T06:27:15;13.10;1.00
13673;DHT22;6909;52.202;9.876;2023-04-06T06:29:41;14.50;1.00
13673;DHT22;6909;52.202;9.876;2023-04-06T06:32:09;14.40;1.00
13673;DHT22;6909;52.202;9.876;2023-04-06T06:34:36;15.00;1.00
13673;DHT22;6909;52.202;9.876;2023-04-06T06:37:03;14.90;1.00
13673;DHT22;6909;52.202;9.876;2023-04-06T06:39:30;15.00;1.00
13673;DHT22;6909;52.202;9.876;2023-04-06T06:41:56;15.20;1.00
13673;DHT22;6909;52.202;9.876;2023-04-06T06:44:26;15.10;1.00
13673;DHT22;6909;52.202;9.876;2023-04-06T06:46:52;14.50;1.00
13673;DHT22;6909;52.202;9.876;2023-04-06T06:49:20;14.50;1.00
13673;DHT22;6909;52.202;9.876;2023-04-06T06:51:47;15.90;1.00
13673;DHT22;6909;52.202;9.876;2023-04-06T06:54:13;14.40;1.00
13673;DHT22;6909;52.202;9.876;2023-04-06T06:56:40;14.70;1.00
13673;DHT22;6909;52.202;9.876;2023-04-06T06:59:07;15.40;1.00
13673;DHT22;6909;52.202;9.876;2023-04-06T07:01:33;16.30;1.00
13673;DHT22;6909;52.202;9.876;2023-04-06T07:04:00;15.80;1.00
13673;DHT22;6909;52.202;9.876;2023-04-06T07:06:28;18.10;1.00
13673;DHT22;6909;52.202;9.876;2023-04-06T07:08:55;18.80;1.00
13673;DHT22;6909;52.202;9.876;2023-04-06T07:11:21;18.80;1.00
13673;DHT22;6909;52.202;9.876;2023-04-06T07:13:48;17.40;1.00
13673;DHT22;6909;52.202;9.876;2023-04-06T07:16:15;16.40;1.00
13673;DHT22;6909;52.202;9.876;2023-04-06T07:18:41;15.50;1.00
13673;DHT22;6909;52.202;9.876;2023-04-06T07:21:08;15.40;1.00
13673;DHT22;6909;52.202;9.876;2023-04-06T07:23:36;15.10;1.00
13673;DHT22;6909;52.202;9.876;2023-04-06T07:26:03;15.10;1.00
13673;DHT22;6909;52.202;9.876;2023-04-06T07:28:30;15.50;1.00
13673;DHT22;6909;52.202;9.876;2023-04-06T07:30:57;14.40;1.00
13673;DHT22;6909;52.202;9.876;2023-04-06T07:33:23;15.70;1.00
13673;DHT22;6909;52.202;9.876;2023-04-06T07:35:50;16.10;1.00
13673;DHT22;6909;52.202;9.876;2023-04-06T07:38:18;15.90;1.00
13673;DHT22;6909;52.202;9.876;2023-04-06T07:40:46;15.00;1.00
13673;DHT22;6909;52.202;9.876;2023-04-06T07:43:13;13.30;1.00
13673;DHT22;6909;52.202;9.876;2023-04-06T07:45:39;12.70;1.00
13673;DHT22;6909;52.202;9.876;2023-04-06T07:48:06;12.80;1.00
13673;DHT22;6909;52.202;9.876;2023-04-06T07:50:33;13.20;1.00
13673;DHT22;6909;52.202;9.876;2023-04-06T07:52:59;13.90;1.00
13673;DHT22;6909;52.202;9.876;2023-04-06T07:55:26;14.00;1.00
13673;DHT22;6909;52.202;9.876;2023-04-06T07:57:57;13.50;1.00
13673;DHT22;6909;52.202;9.876;2023-04-06T08:00:24;12.80;1.00
13673;DHT22;6909;52.202;9.876;2023-04-06T08:02:50;13.30;1.00
13673;DHT22;6909;52.202;9.876;2023-04-06T08:05:17;13.10;1.00
13673;DHT22;6909;52.202;9.876;2023-04-06T08:07:44;13.00;1.00
13673;DHT22;6909;52.202;9.876;2023-04-06T08:10:10;12.90;1.00
13673;DHT22;6909;52.202;9.876;2023-04-06T08:12:37;12.00;1.00
13673;DHT22;6909;52.202;9.876;2023-04-06T08:15:06;11.90;1.00
13673;DHT22;6909;52.202;9.876;2023-04-06T08:17:32;11.30;1.00
13673;DHT22;6909;52.202;9.876;2023-04-06T08:19:59;11.40;1.00
13673;DHT22;6909;52.202;9.876;2023-04-06T08:22:26;11.60;1.00
13673;DHT22;6909;52.202;9.876;2023-04-06T08:24:53;11.70;1.00
13673;DHT22;6909;52.202;9.876;2023-04-06T08:27:19;11.90;1.00
13673;DHT22;6909;52.202;9.876;2023-04-06T08:29:49;12.20;1.00
13673;DHT22;6909;52.202;9.876;2023-04-06T08:32:17;12.20;1.00
13673;DHT22;6909;52.202;9.876;2023-04-06T08:34:44;12.20;1.00
13673;DHT22;6909;52.202;9.876;2023-04-06T08:37:10;11.60;1.00
13673;DHT22;6909;52.202;9.876;2023-04-06T08:39:37;11.70;1.00
13673;DHT22;6909;52.202;9.876;2023-04-06T08:42:04;11.60;1.00
13673;DHT22;6909;52.202;9.876;2023-04-06T08:44:31;11.20;1.00
13673;DHT22;6909;52.202;9.876;2023-04-06T08:46:59;11.30;1.00
13673;DHT22;6909;52.202;9.876;2023-04-06T08:49:28;11.30;1.00
13673;DHT22;6909;52.202;9.876;2023-04-06T08:51:55;11.40;1.00
13673;DHT22;6909;52.202;9.876;2023-04-06T08:54:22;12.20;1.00
13673;DHT22;6909;52.202;9.876;2023-04-06T08:56:49;12.30;1.00
13673;DHT22;6909;52.202;9.876;2023-04-06T08:59:17;12.30;1.00
13673;DHT22;6909;52.202;9.876;2023-04-06T09:01:44;12.40;1.00
13673;DHT22;6909;52.202;9.876;2023-04-06T09:04:12;12.00;1.00
13673;DHT22;6909;52.202;9.876;2023-04-06T09:06:40;11.80;1.00
13673;DHT22;6909;52.202;9.876;2023-04-06T09:09:07;11.50;1.00
13673;DHT22;6909;52.202;9.876;2023-04-06T09:11:47;11.60;1.00
13673;DHT22;6909;52.202;9.876;2023-04-06T09:14:15;11.90;1.00
13673;DHT22;6909;52.202;9.876;2023-04-06T09:16:42;12.00;1.00
13673;DHT22;6909;52.202;9.876;2023-04-06T09:19:11;12.00;1.00
13673;DHT22;6909;52.202;9.876;2023-04-06T09:21:40;11.70;1.00
13673;DHT22;6909;52.202;9.876;2023-04-06T09:24:07;11.70;1.00
13673;DHT22;6909;52.202;9.876;2023-04-06T09:26:44;11.80;1.00
13673;DHT22;6909;52.202;9.876;2023-04-06T09:29:22;12.00;1.00
13673;DHT22;6909;52.202;9.876;2023-04-06T09:31:49;12.00;1.00
13673;DHT22;6909;52.202;9.876;2023-04-06T09:34:21;12.30;1.00
13673;DHT22;6909;52.202;9.876;2023-04-06T09:36:50;12.40;1.00
13673;DHT22;6909;52.202;9.876;2023-04-06T09:39:20;12.40;1.00
13673;DHT22;6909;52.202;9.876;2023-04-06T09:41:50;12.50;1.00
13673;DHT22;6909;52.202;9.876;2023-04-06T09:44:17;12.40;1.00
13673;DHT22;6909;52.202;9.876;2023-04-06T09:46:45;12.20;1.00
13673;DHT22;6909;52.202;9.876;2023-04-06T09:49:13;12.10;1.00
13673;DHT22;6909;52.202;9.876;2023-04-06T09:51:40;12.40;1.00
13673;DHT22;6909;52.202;9.876;2023-04-06T09:54:09;12.40;1.00
13673;DHT22;6909;52.202;9.876;2023-04-06T09:56:43;12.10;1.00
13673;DHT22;6909;52.202;9.876;2023-04-06T09:59:14;12.20;1.00
13673;DHT22;6909;52.202;9.876;2023-04-06T10:01:46;12.10;1.00
13673;DHT22;6909;52.202;9.876;2023-04-06T10:04:28;11.90;1.00
13673;DHT22;6909;52.202;9.876;2023-04-06T10:06:58;12.00;1.00
13673;DHT22;6909;52.202;9.876;2023-04-06T10:09:29;12.00;1.00
13673;DHT22;6909;52.202;9.876;2023-04-06T10:12:02;12.00;1.00
13673;DHT22;6909;52.202;9.876;2023-04-06T10:14:29;11.90;1.00
13673;DHT22;6909;52.202;9.876;2023-04-06T10:16:57;12.20;1.00
13673;DHT22;6909;52.202;9.876;2023-04-06T10:19:26;12.00;1.00
13673;DHT22;6909;52.202;9.876;2023-04-06T10:21:56;12.10;1.00
13673;DHT22;6909;52.202;9.876;2023-04-06T10:24:30;12.00;1.00
13673;DHT22;6909;52.202;9.876;2023-04-06T10:26:58;12.00;1.00
13673;DHT22;6909;52.202;9.876;2023-04-06T10:29:25;11.80;1.00
13673;DHT22;6909;52.202;9.876;2023-04-06T10:31:52;11.90;1.00
13673;DHT22;6909;52.202;9.876;2023-04-06T10:34:20;11.70;1.00
13673;DHT22;6909;52.202;9.876;2023-04-06T10:36:47;11.80;1.00
13673;DHT22;6909;52.202;9.876;2023-04-06T10:39:14;12.00;1.00
13673;DHT22;6909;52.202;9.876;2023-04-06T10:41:43;11.90;1.00
13673;DHT22;6909;52.202;9.876;2023-04-06T10:44:17;11.70;1.00
13673;DHT22;6909;52.202;9.876;2023-04-06T10:46:52;12.00;1.00
13673;DHT22;6909;52.202;9.876;2023-04-06T10:49:19;12.80;1.00
13673;DHT22;6909;52.202;9.876;2023-04-06T10:51:51;12.70;1.00
13673;DHT22;6909;52.202;9.876;2023-04-06T10:54:20;12.20;1.00
13673;DHT22;6909;52.202;9.876;2023-04-06T10:56:48;12.40;1.00
13673;DHT22;6909;52.202;9.876;2023-04-06T10:59:19;12.00;1.00
13673;DHT22;6909;52.202;9.876;2023-04-06T11:01:46;12.00;1.00
13673;DHT22;6909;52.202;9.876;2023-04-06T11:04:16;12.40;1.00
13673;DHT22;6909;52.202;9.876;2023-04-06T11:06:46;12.70;1.00
13673;DHT22;6909;52.202;9.876;2023-04-06T11:09:23;12.60;1.00
13673;DHT22;6909;52.202;9.876;2023-04-06T11:11:52;12.70;1.00
13673;DHT22;6909;52.202;9.876;2023-04-06T11:14:19;12.50;1.00
13673;DHT22;6909;52.202;9.876;2023-04-06T11:16:47;12.90;1.00
13673;DHT22;6909;52.202;9.876;2023-04-06T11:19:15;12.80;1.00
13673;DHT22;6909;52.202;9.876;2023-04-06T11:21:43;12.70;1.00
13673;DHT22;6909;52.202;9.876;2023-04-06T11:24:14;13.00;1.00
13673;DHT22;6909;52.202;9.876;2023-04-06T11:26:43;13.10;1.00
13673;DHT22;6909;52.202;9.876;2023-04-06T11:29:12;12.80;1.00
13673;DHT22;6909;52.202;9.876;2023-04-06T11:31:44;12.60;1.00
13673;DHT22;6909;52.202;9.876;2023-04-06T11:34:12;12.40;1.00
13673;DHT22;6909;52.202;9.876;2023-04-06T11:36:42;12.30;1.00
13673;DHT22;6909;52.202;9.876;2023-04-06T11:39:10;12.20;1.00
13673;DHT22;6909;52.202;9.876;2023-04-06T11:41:37;11.90;1.00
13673;DHT22;6909;52.202;9.876;2023-04-06T11:44:05;12.20;1.00
13673;DHT22;6909;52.202;9.876;2023-04-06T11:46:33;12.10;1.00
13673;DHT22;6909;52.202;9.876;2023-04-06T11:49:01;12.20;1.00
13673;DHT22;6909;52.202;9.876;2023-04-06T11:51:28;12.10;1.00
13673;DHT22;6909;52.202;9.876;2023-04-06T11:53:55;12.00;1.00
13673;DHT22;6909;52.202;9.876;2023-04-06T11:56:26;12.00;1.00
13673;DHT22;6909;52.202;9.876;2023-04-06T11:58:54;12.30;1.00
13673;DHT22;6909;52.202;9.876;2023-04-06T12:01:21;12.20;1.00
13673;DHT22;6909;52.202;9.876;2023-04-06T12:03:50;12.40;1.00
13673;DHT22;6909;52.202;9.876;2023-04-06T12:06:17;12.20;1.00
13673;DHT22;6909;52.202;9.876;2023-04-06T12:08:43;12.40;1.00
13673;DHT22;6909;52.202;9.876;2023-04-06T12:11:11;12.50;1.00
13673;DHT22;6909;52.202;9.876;2023-04-06T12:13:38;12.30;1.00
13673;DHT22;6909;52.202;9.876;2023-04-06T12:16:05;12.60;1.00
13673;DHT22;6909;52.202;9.876;2023-04-06T12:18:32;12.40;1.00
13673;DHT22;6909;52.202;9.876;2023-04-06T12:21:00;12.40;1.00
13673;DHT22;6909;52.202;9.876;2023-04-06T12:23:26;12.50;1.00
13673;DHT22;6909;52.202;9.876;2023-04-06T12:25:53;12.60;1.00
13673;DHT22;6909;52.202;9.876;2023-04-06T12:28:20;12.70;1.00
13673;DHT22;6909;52.202;9.876;2023-04-06T12:30:48;12.80;1.00
13673;DHT22;6909;52.202;9.876;2023-04-06T12:33:15;12.90;1.00
13673;DHT22;6909;52.202;9.876;2023-04-06T12:35:42;12.90;1.00
13673;DHT22;6909;52.202;9.876;2023-04-06T12:38:10;12.80;1.00
13673;DHT22;6909;52.202;9.876;2023-04-06T12:40:37;12.90;1.00
13673;DHT22;6909;52.202;9.876;2023-04-06T12:43:04;13.00;1.00
13673;DHT22;6909;52.202;9.876;2023-04-06T12:45:31;13.10;1.00
13673;DHT22;6909;52.202;9.876;2023-04-06T12:47:58;13.30;1.00
13673;DHT22;6909;52.202;9.876;2023-04-06T12:50:25;13.00;1.00
13673;DHT22;6909;52.202;9.876;2023-04-06T12:52:51;12.70;1.00
13673;DHT22;6909;52.202;9.876;2023-04-06T12:55:19;12.70;1.00
13673;DHT22;6909;52.202;9.876;2023-04-06T12:57:47;13.00;1.00
13673;DHT22;6909;52.202;9.876;2023-04-06T13:00:15;12.80;1.00
13673;DHT22;6909;52.202;9.876;2023-04-06T13:02:42;12.90;1.00
13673;DHT22;6909;52.202;9.876;2023-04-06T13:05:12;13.20;1.00
13673;DHT22;6909;52.202;9.876;2023-04-06T13:07:39;13.30;1.00
13673;DHT22;6909;52.202;9.876;2023-04-06T13:10:06;13.20;1.00
13673;DHT22;6909;52.202;9.876;2023-04-06T13:12:34;13.50;1.00
13673;DHT22;6909;52.202;9.876;2023-04-06T13:15:01;13.60;1.00
13673;DHT22;6909;52.202;9.876;2023-04-06T13:17:29;13.50;1.00
13673;DHT22;6909;52.202;9.876;2023-04-06T13:19:55;13.40;1.00
13673;DHT22;6909;52.202;9.876;2023-04-06T13:22:22;13.50;1.00
13673;DHT22;6909;52.202;9.876;2023-04-06T13:24:49;13.70;1.00
13673;DHT22;6909;52.202;9.876;2023-04-06T13:27:15;13.80;1.00
13673;DHT22;6909;52.202;9.876;2023-04-06T13:29:43;13.30;1.00
13673;DHT22;6909;52.202;9.876;2023-04-06T13:32:10;13.10;1.00
13673;DHT22;6909;52.202;9.876;2023-04-06T13:34:37;13.10;1.00
13673;DHT22;6909;52.202;9.876;2023-04-06T13:37:03;13.10;1.00
13673;DHT22;6909;52.202;9.876;2023-04-06T13:39:31;13.30;1.00
13673;DHT22;6909;52.202;9.876;2023-04-06T13:41:58;13.20;1.00
13673;DHT22;6909;52.202;9.876;2023-04-06T13:44:24;13.30;1.00
13673;DHT22;6909;52.202;9.876;2023-04-06T13:46:52;13.40;1.00
13673;DHT22;6909;52.202;9.876;2023-04-06T13:49:19;13.40;1.00
13673;DHT22;6909;52.202;9.876;2023-04-06T13:51:47;13.40;1.00
13673;DHT22;6909;52.202;9.876;2023-04-06T13:54:13;13.20;1.00
13673;DHT22;6909;52.202;9.876;2023-04-06T13:56:40;13.30;1.00
13673;DHT22;6909;52.202;9.876;2023-04-06T13:59:07;13.30;1.00
13673;DHT22;6909;52.202;9.876;2023-04-06T14:01:33;13.30;1.00
13673;DHT22;6909;52.202;9.876;2023-04-06T14:04:01;13.40;1.00
13673;DHT22;6909;52.202;9.876;2023-04-06T14:06:28;13.30;1.00
13673;DHT22;6909;52.202;9.876;2023-04-06T14:08:55;13.30;1.00
13673;DHT22;6909;52.202;9.876;2023-04-06T14:11:22;13.30;1.00
13673;DHT22;6909;52.202;9.876;2023-04-06T14:13:49;13.30;1.00
13673;DHT22;6909;52.202;9.876;2023-04-06T14:16:15;13.40;1.00
13673;DHT22;6909;52.202;9.876;2023-04-06T14:18:44;13.20;1.00
13673;DHT22;6909;52.202;9.876;2023-04-06T14:21:12;13.20;1.00
13673;DHT22;6909;52.202;9.876;2023-04-06T14:23:40;13.20;1.00
13673;DHT22;6909;52.202;9.876;2023-04-06T14:26:07;13.20;1.00
13673;DHT22;6909;52.202;9.876;2023-04-06T14:28:35;13.40;1.00
13673;DHT22;6909;52.202;9.876;2023-04-06T14:31:09;13.10;1.00
13673;DHT22;6909;52.202;9.876;2023-04-06T14:33:36;13.30;1.00
13673;DHT22;6909;52.202;9.876;2023-04-06T14:36:04;13.40;1.00
13673;DHT22;6909;52.202;9.876;2023-04-06T14:38:32;13.30;1.00
13673;DHT22;6909;52.202;9.876;2023-04-06T14:40:59;13.20;1.00
13673;DHT22;6909;52.202;9.876;2023-04-06T14:43:26;13.10;1.00
13673;DHT22;6909;52.202;9.876;2023-04-06T14:45:52;13.20;1.00
13673;DHT22;6909;52.202;9.876;2023-04-06T14:48:19;13.30;1.00
13673;DHT22;6909;52.202;9.876;2023-04-06T14:50:52;13.30;1.00
13673;DHT22;6909;52.202;9.876;2023-04-06T14:53:19;13.30;1.00
13673;DHT22;6909;52.202;9.876;2023-04-06T14:55:47;13.40;1.00
13673;DHT22;6909;52.202;9.876;2023-04-06T14:58:15;13.30;1.00
13673;DHT22;6909;52.202;9.876;2023-04-06T15:00:41;13.40;1.00
13673;DHT22;6909;52.202;9.876;2023-04-06T15:03:08;13.40;1.00
13673;DHT22;6909;52.202;9.876;2023-04-06T15:05:35;13.30;1.00
13673;DHT22;6909;52.202;9.876;2023-04-06T15:08:02;13.20;1.00
13673;DHT22;6909;52.202;9.876;2023-04-06T15:10:31;13.20;1.00
13673;DHT22;6909;52.202;9.876;2023-04-06T15:12:59;13.10;1.00
13673;DHT22;6909;52.202;9.876;2023-04-06T15:15:26;13.20;1.00
13673;DHT22;6909;52.202;9.876;2023-04-06T15:17:52;13.20;1.00
13673;DHT22;6909;52.202;9.876;2023-04-06T15:20:19;13.20;1.00
13673;DHT22;6909;52.202;9.876;2023-04-06T15:22:46;13.20;1.00
13673;DHT22;6909;52.202;9.876;2023-04-06T15:25:13;13.20;1.00
13673;DHT22;6909;52.202;9.876;2023-04-06T15:27:39;13.30;1.00
13673;DHT22;6909;52.202;9.876;2023-04-06T15:30:08;13.30;1.00
13673;DHT22;6909;52.202;9.876;2023-04-06T15:32:35;13.30;1.00
13673;DHT22;6909;52.202;9.876;2023-04-06T15:35:08;13.20;1.00
13673;DHT22;6909;52.202;9.876;2023-04-06T15:37:36;13.20;1.00
13673;DHT22;6909;52.202;9.876;2023-04-06T15:40:03;13.20;1.00
13673;DHT22;6909;52.202;9.876;2023-04-06T15:42:30;13.30;1.00
13673;DHT22;6909;52.202;9.876;2023-04-06T15:44:57;13.20;1.00
13673;DHT22;6909;52.202;9.876;2023-04-06T15:47:25;13.20;1.00
13673;DHT22;6909;52.202;9.876;2023-04-06T15:49:51;13.10;1.00
13673;DHT22;6909;52.202;9.876;2023-04-06T15:52:18;13.10;1.00
13673;DHT22;6909;52.202;9.876;2023-04-06T15:54:44;13.00;1.00
13673;DHT22;6909;52.202;9.876;2023-04-06T15:57:12;13.00;1.00
13673;DHT22;6909;52.202;9.876;2023-04-06T15:59:39;13.10;1.00
13673;DHT22;6909;52.202;9.876;2023-04-06T16:02:08;13.10;1.00